Time;durP1;ratioP1;P1;durP2;ratioP2;P2;SDS_P1;SDS_P2;PMS_P1;PMS_P2;Temp;Humidity;BMP_temperature;BMP_pressure;BME280_temperature;BME280_humidity;BME280_pressure;Samples;Min_cycle;Max_cycle;Signal;HPM_P1;HPM_P2
2023/06/01 00:01:48;;;;;;;0.75;0.52;;;17.70;93.10;;;;;;4358112;32;20553;-74
2023/06/01 00:04:14;;;;;;;1.55;0.52;;;17.70;93.10;;;;;;4354601;32;20074;-74
2023/06/01 00:06:40;;;;;;;0.32;0.32;;;17.70;93.60;;;;;;4360018;32;20078;-73
2023/06/01 00:09:06;;;;;;;0.30;0.30;;;17.70;93.30;;;;;;4357111;32;20261;-74
2023/06/01 00:11:31;;;;;;;0.30;0.30;;;17.70;93.30;;;;;;4353392;32;20066;-74
2023/06/01 00:13:57;;;;;;;0.30;0.30;;;17.50;93.60;;;;;;4354712;32;20107;-74
2023/06/01 00:16:22;;;;;;;0.20;0.20;;;17.60;93.70;;;;;;4358742;32;20090;-73
2023/06/01 00:18:48;;;;;;;0.30;0.30;;;17.40;94.10;;;;;;4360635;32;20091;-73
2023/06/01 00:21:14;;;;;;;0.28;0.28;;;17.40;94.10;;;;;;4358328;32;20138;-74
2023/06/01 00:23:40;;;;;;;0.30;0.30;;;17.50;94.00;;;;;;4353978;32;20099;-75
2023/06/01 00:26:07;;;;;;;0.50;0.40;;;17.50;94.10;;;;;;4354761;32;20062;-74
2023/06/01 00:28:33;;;;;;;1.42;0.88;;;17.40;94.10;;;;;;4359019;32;20554;-74
2023/06/01 00:30:59;;;;;;;0.20;0.20;;;17.30;94.20;;;;;;4356949;32;20071;-74
2023/06/01 00:33:24;;;;;;;0.45;0.45;;;17.30;94.60;;;;;;4359222;32;20251;-74
2023/06/01 00:35:51;;;;;;;3.00;0.40;;;17.30;94.70;;;;;;4356008;32;20099;-73
2023/06/01 00:38:16;;;;;;;0.30;0.30;;;17.30;94.70;;;;;;4357999;32;20070;-74
2023/06/01 00:40:43;;;;;;;0.20;0.20;;;17.30;94.90;;;;;;4360100;32;20094;-74
2023/06/01 00:43:09;;;;;;;0.20;0.20;;;17.30;95.30;;;;;;4355061;32;20090;-74
2023/06/01 00:45:35;;;;;;;0.25;0.25;;;17.20;95.20;;;;;;4356204;32;20070;-74
2023/06/01 00:48:01;;;;;;;0.37;0.37;;;17.10;95.40;;;;;;4359719;32;20092;-74
2023/06/01 00:50:26;;;;;;;0.40;0.40;;;17.00;95.70;;;;;;4361576;32;20097;-74
2023/06/01 00:52:52;;;;;;;0.20;0.20;;;17.00;95.90;;;;;;4358465;32;20113;-74
2023/06/01 00:55:20;;;;;;;0.30;0.30;;;17.00;95.90;;;;;;4358532;32;20704;-73
2023/06/01 00:57:46;;;;;;;0.22;0.22;;;16.90;96.40;;;;;;4361202;32;20544;-73
2023/06/01 01:00:12;;;;;;;0.93;0.70;;;16.90;96.50;;;;;;4360904;32;20110;-74
2023/06/01 01:02:39;;;;;;;0.30;0.30;;;16.80;96.80;;;;;;4362364;32;20086;-73
2023/06/01 01:05:09;;;;;;;0.57;0.57;;;16.90;96.80;;;;;;4358456;32;20154;-74
2023/06/01 01:07:41;;;;;;;0.80;0.57;;;16.90;97.00;;;;;;4362214;32;20106;-74
2023/06/01 01:10:32;;;;;;;0.55;0.55;;;17.00;96.90;;;;;;4357940;32;20826;-73
2023/06/01 01:12:59;;;;;;;;;;;16.90;97.20;;;;;;4361000;32;20641;-74
2023/06/01 01:15:33;;;;;;;3.87;0.98;;;16.80;97.60;;;;;;4361704;32;20036;-74
2023/06/01 01:18:04;;;;;;;3.75;0.50;;;16.70;97.90;;;;;;4362980;32;20208;-73
2023/06/01 01:20:35;;;;;;;0.40;0.40;;;16.80;98.10;;;;;;4358433;32;20071;-74
2023/06/01 01:23:32;;;;;;;0.30;0.30;;;16.80;98.30;;;;;;4360304;32;20127;-74
2023/06/01 01:26:24;;;;;;;0.57;0.57;;;16.70;98.70;;;;;;4357125;32;20559;-73
2023/06/01 01:28:54;;;;;;;0.40;0.40;;;16.70;98.90;;;;;;4361930;32;20106;-73
2023/06/01 01:31:23;;;;;;;0.45;0.45;;;16.40;99.70;;;;;;4357204;32;20483;-73
2023/06/01 01:33:51;;;;;;;0.30;0.30;;;16.50;99.90;;;;;;4363355;32;20458;-73
2023/06/01 01:36:17;;;;;;;0.30;0.30;;;16.40;99.90;;;;;;4359384;32;20464;-73
2023/06/01 01:38:42;;;;;;;0.30;0.30;;;16.30;99.90;;;;;;4362965;32;20063;-73
2023/06/01 01:41:08;;;;;;;0.30;0.30;;;16.30;99.90;;;;;;4363970;32;20083;-73
2023/06/01 01:43:34;;;;;;;0.30;0.30;;;16.40;99.90;;;;;;4360372;32;20079;-73
2023/06/01 01:46:18;;;;;;;0.30;0.30;;;16.30;99.90;;;;;;4359730;32;20107;-72
2023/06/01 01:49:09;;;;;;;0.30;0.30;;;16.20;99.90;;;;;;4366635;32;20593;-74
2023/06/01 01:51:37;;;;;;;0.30;0.30;;;16.20;99.90;;;;;;4359685;32;20074;-75
2023/06/01 01:54:06;;;;;;;0.30;0.30;;;16.20;99.90;;;;;;4354646;32;20130;-74
2023/06/01 01:56:34;;;;;;;0.40;0.40;;;16.20;99.90;;;;;;4364160;32;20067;-74
2023/06/01 01:59:00;;;;;;;0.37;0.37;;;16.10;99.90;;;;;;4359976;32;20143;-75
2023/06/01 02:01:26;;;;;;;0.30;0.30;;;16.10;99.90;;;;;;4358622;32;20099;-74
2023/06/01 02:04:00;;;;;;;0.40;0.40;;;16.00;99.90;;;;;;4360554;32;20090;-74
2023/06/01 02:06:26;;;;;;;0.20;0.20;;;15.90;99.90;;;;;;4360324;32;20147;-74
2023/06/01 02:08:51;;;;;;;0.30;0.30;;;15.90;99.90;;;;;;4360581;32;20501;-74
2023/06/01 02:11:18;;;;;;;0.47;0.47;;;15.90;99.90;;;;;;4362273;32;20133;-75
2023/06/01 02:13:43;;;;;;;0.50;0.50;;;15.80;99.90;;;;;;4362075;32;20166;-75
2023/06/01 02:16:09;;;;;;;0.30;0.30;;;15.80;99.90;;;;;;4354429;32;20122;-74
2023/06/01 02:18:39;;;;;;;0.30;0.30;;;15.80;99.90;;;;;;4361500;32;20167;-74
2023/06/01 02:21:05;;;;;;;0.40;0.40;;;15.70;99.90;;;;;;4361369;32;20098;-75
2023/06/01 02:23:30;;;;;;;0.37;0.37;;;15.70;99.90;;;;;;4359764;32;20128;-73
2023/06/01 02:25:56;;;;;;;1.17;0.80;;;15.60;99.90;;;;;;4363473;32;20098;-75
2023/06/01 02:28:21;;;;;;;0.30;0.30;;;15.50;99.90;;;;;;4364108;32;20063;-74
2023/06/01 02:30:47;;;;;;;0.30;0.30;;;15.50;99.90;;;;;;4361528;32;20126;-74
2023/06/01 02:33:12;;;;;;;1.08;0.88;;;15.40;99.90;;;;;;4359227;32;20086;-74
2023/06/01 02:35:39;;;;;;;1.05;0.80;;;15.40;99.90;;;;;;4360219;32;20538;-74
2023/06/01 02:38:05;;;;;;;1.25;0.35;;;15.30;99.90;;;;;;4359632;32;20085;-73
2023/06/01 02:40:30;;;;;;;0.30;0.30;;;15.30;99.90;;;;;;4360674;32;20095;-75
2023/06/01 02:42:56;;;;;;;0.60;0.57;;;15.20;99.90;;;;;;4358621;32;20090;-73
2023/06/01 02:45:21;;;;;;;0.50;0.50;;;15.10;99.90;;;;;;4357414;32;20506;-73
2023/06/01 02:47:47;;;;;;;0.30;0.30;;;15.10;99.90;;;;;;4362051;32;20080;-74
2023/06/01 02:50:12;;;;;;;0.43;0.43;;;15.10;99.90;;;;;;4358846;32;21152;-74
2023/06/01 02:52:38;;;;;;;0.82;0.82;;;15.10;99.90;;;;;;4359653;32;20505;-74
2023/06/01 02:55:05;;;;;;;0.47;0.45;;;15.00;99.90;;;;;;4369629;32;20085;-73
2023/06/01 02:57:31;;;;;;;0.85;0.57;;;15.00;99.90;;;;;;4360715;32;20137;-75
2023/06/01 02:59:56;;;;;;;0.50;0.50;;;14.80;99.90;;;;;;4355326;32;20523;-74
2023/06/01 03:02:22;;;;;;;0.40;0.40;;;14.80;99.90;;;;;;4360244;32;20078;-74
2023/06/01 03:04:48;;;;;;;0.43;0.43;;;14.60;99.90;;;;;;4360651;32;20502;-74
2023/06/01 03:07:14;;;;;;;0.45;0.45;;;14.60;99.90;;;;;;4360288;32;20111;-74
2023/06/01 03:09:40;;;;;;;0.85;0.85;;;14.50;99.90;;;;;;4359474;32;20083;-75
2023/06/01 03:12:06;;;;;;;0.30;0.30;;;14.50;99.90;;;;;;4360802;32;20090;-74
2023/06/01 03:14:31;;;;;;;0.45;0.45;;;14.50;99.90;;;;;;4358481;32;20090;-74
2023/06/01 03:16:57;;;;;;;0.73;0.73;;;14.40;99.90;;;;;;4359916;32;20439;-74
2023/06/01 03:19:22;;;;;;;0.20;0.20;;;14.40;99.90;;;;;;4359180;32;20091;-74
2023/06/01 03:21:49;;;;;;;1.95;1.02;;;14.40;99.90;;;;;;4358468;32;20205;-74
2023/06/01 03:24:14;;;;;;;0.60;0.55;;;14.30;99.90;;;;;;4359451;32;20126;-75
2023/06/01 03:26:40;;;;;;;5.15;1.48;;;14.30;99.90;;;;;;4356688;32;20067;-74
2023/06/01 03:29:06;;;;;;;5.30;0.90;;;14.30;99.90;;;;;;4361530;32;20267;-74
2023/06/01 03:31:34;;;;;;;2.05;0.85;;;14.40;99.90;;;;;;4359416;32;20231;-74
2023/06/01 03:34:00;;;;;;;5.28;0.95;;;14.30;99.90;;;;;;4358372;32;20085;-74
2023/06/01 03:36:26;;;;;;;0.47;0.47;;;14.20;99.90;;;;;;4356281;32;20071;-74
2023/06/01 03:38:51;;;;;;;0.77;0.77;;;14.20;99.90;;;;;;4358748;32;20162;-74
2023/06/01 03:41:16;;;;;;;0.22;0.22;;;14.10;99.90;;;;;;4355155;32;20444;-74
2023/06/01 03:43:42;;;;;;;0.60;0.60;;;14.20;99.90;;;;;;4362019;32;20098;-74
2023/06/01 03:46:08;;;;;;;0.57;0.52;;;14.20;99.90;;;;;;4363612;32;20592;-75
2023/06/01 03:48:34;;;;;;;0.40;0.40;;;14.20;99.90;;;;;;4365637;32;20152;-74
2023/06/01 03:51:00;;;;;;;0.30;0.30;;;14.00;99.90;;;;;;4357365;32;20110;-74
2023/06/01 03:53:25;;;;;;;1.02;0.93;;;14.00;99.90;;;;;;4355529;32;20183;-75
2023/06/01 03:55:52;;;;;;;0.70;0.60;;;14.10;99.90;;;;;;4362600;32;20126;-74
2023/06/01 03:58:19;;;;;;;0.90;0.85;;;13.90;99.90;;;;;;4357886;32;20094;-75
2023/06/01 04:00:46;;;;;;;0.32;0.32;;;13.90;99.90;;;;;;4361732;32;20070;-75
2023/06/01 04:03:13;;;;;;;0.43;0.30;;;13.90;99.90;;;;;;4361386;32;20078;-75
2023/06/01 04:05:38;;;;;;;1.30;0.85;;;13.90;99.90;;;;;;4355252;32;20495;-74
2023/06/01 04:08:04;;;;;;;0.40;0.40;;;13.90;99.90;;;;;;4358893;32;20128;-75
2023/06/01 04:10:30;;;;;;;0.62;0.57;;;13.80;99.90;;;;;;4358157;32;20212;-74
2023/06/01 04:12:55;;;;;;;11.00;0.40;;;13.90;99.90;;;;;;4361279;32;20561;-75
2023/06/01 04:15:22;;;;;;;0.65;0.60;;;13.80;99.90;;;;;;4365960;32;20082;-74
2023/06/01 04:17:48;;;;;;;0.30;0.30;;;13.70;99.90;;;;;;4367163;32;20079;-74
2023/06/01 04:20:16;;;;;;;0.40;0.40;;;13.70;99.90;;;;;;4360357;32;20078;-73
2023/06/01 04:22:42;;;;;;;0.30;0.30;;;13.60;99.90;;;;;;4349816;32;20098;-74
2023/06/01 04:25:11;;;;;;;0.50;0.50;;;13.70;99.90;;;;;;4359279;32;20062;-73
2023/06/01 04:27:37;;;;;;;0.60;0.60;;;13.80;99.90;;;;;;4358143;32;20179;-74
2023/06/01 04:30:07;;;;;;;0.30;0.30;;;13.80;99.90;;;;;;4359026;32;20063;-74
2023/06/01 04:32:37;;;;;;;1.20;0.95;;;13.70;99.90;;;;;;4353740;32;20154;-74
2023/06/01 04:35:05;;;;;;;0.50;0.50;;;13.60;99.90;;;;;;4365610;32;20103;-74
2023/06/01 04:37:34;;;;;;;0.30;0.30;;;13.60;99.90;;;;;;4357561;32;20084;-74
2023/06/01 04:40:06;;;;;;;0.60;0.60;;;13.60;99.90;;;;;;4357437;32;20102;-73
2023/06/01 04:42:31;;;;;;;7.12;1.80;;;13.40;99.90;;;;;;4359593;32;20090;-74
2023/06/01 04:44:58;;;;;;;0.98;0.73;;;13.20;99.90;;;;;;4356003;32;20083;-74
2023/06/01 04:47:23;;;;;;;2.20;0.85;;;13.20;99.90;;;;;;4359265;32;20189;-73
2023/06/01 04:49:49;;;;;;;0.62;0.62;;;13.30;99.90;;;;;;4355342;32;20209;-72
2023/06/01 04:52:15;;;;;;;0.62;0.60;;;13.20;99.90;;;;;;4355786;32;20203;-75
2023/06/01 04:54:40;;;;;;;1.83;0.60;;;13.30;99.90;;;;;;4360772;32;20541;-75
2023/06/01 04:57:06;;;;;;;0.52;0.52;;;13.20;99.90;;;;;;4359203;32;20073;-73
2023/06/01 04:59:32;;;;;;;1.65;0.88;;;13.20;99.90;;;;;;4355557;32;20462;-73
2023/06/01 05:01:59;;;;;;;0.70;0.65;;;13.10;99.90;;;;;;4352047;32;20074;-74
2023/06/01 05:04:25;;;;;;;0.60;0.60;;;13.20;99.90;;;;;;4355517;32;20134;-74
2023/06/01 05:06:51;;;;;;;0.95;0.40;;;13.30;99.90;;;;;;4354716;32;20126;-74
2023/06/01 05:09:18;;;;;;;3.53;1.25;;;13.30;99.90;;;;;;4354722;32;20071;-73
2023/06/01 05:11:43;;;;;;;1.98;0.90;;;13.30;99.90;;;;;;4357659;32;20602;-74
2023/06/01 05:14:09;;;;;;;1.62;1.00;;;13.40;99.90;;;;;;4356119;32;20317;-74
2023/06/01 05:16:34;;;;;;;2.25;1.12;;;13.40;99.90;;;;;;4355822;32;20094;-75
2023/06/01 05:19:00;;;;;;;1.55;0.85;;;13.40;99.90;;;;;;4347477;32;20074;-75
2023/06/01 05:21:25;;;;;;;0.45;0.45;;;13.50;99.90;;;;;;4357718;32;20193;-74
2023/06/01 05:23:51;;;;;;;0.30;0.30;;;13.50;99.90;;;;;;4354747;32;20443;-74
2023/06/01 05:26:16;;;;;;;0.20;0.20;;;13.40;99.90;;;;;;4350528;32;20110;-74
2023/06/01 05:28:42;;;;;;;0.43;0.43;;;13.40;99.90;;;;;;4349364;32;20700;-75
2023/06/01 05:31:08;;;;;;;1.20;1.05;;;13.30;99.90;;;;;;4338214;32;20067;-74
2023/06/01 05:33:33;;;;;;;2.17;1.65;;;13.30;99.90;;;;;;4348050;32;20487;-77
2023/06/01 05:35:59;;;;;;;1.30;0.68;;;13.50;99.90;;;;;;4351706;32;20079;-76
2023/06/01 05:38:26;;;;;;;1.65;1.25;;;13.50;99.90;;;;;;4354415;32;20134;-78
2023/06/01 05:40:55;;;;;;;1.52;1.00;;;13.50;99.90;;;;;;4358073;32;20471;-75
2023/06/01 05:43:21;;;;;;;0.93;0.55;;;13.40;99.90;;;;;;4357247;32;20098;-77
2023/06/01 05:45:48;;;;;;;2.17;1.33;;;13.40;99.90;;;;;;4359070;32;20538;-76
2023/06/01 05:48:14;;;;;;;0.50;0.50;;;13.40;99.90;;;;;;4354330;32;20141;-75
2023/06/01 05:50:41;;;;;;;3.08;0.75;;;13.50;99.90;;;;;;4355385;32;20127;-75
2023/06/01 05:53:08;;;;;;;0.93;0.57;;;13.50;99.90;;;;;;4355228;32;20074;-76
2023/06/01 05:55:33;;;;;;;0.50;0.50;;;13.40;99.90;;;;;;4355059;32;20134;-76
2023/06/01 05:57:59;;;;;;;0.95;0.77;;;13.50;99.90;;;;;;4359852;32;20095;-75
2023/06/01 06:00:24;;;;;;;2.95;0.93;;;13.50;99.90;;;;;;4357559;32;20854;-77
2023/06/01 06:02:50;;;;;;;0.43;0.43;;;13.70;99.90;;;;;;4356040;32;20093;-73
2023/06/01 06:05:15;;;;;;;2.42;1.40;;;13.70;99.90;;;;;;4357660;32;20525;-74
2023/06/01 06:07:41;;;;;;;0.73;0.73;;;13.70;99.90;;;;;;4357935;32;20091;-73
2023/06/01 06:10:07;;;;;;;0.50;0.50;;;13.80;99.90;;;;;;4355309;32;20094;-74
2023/06/01 06:12:33;;;;;;;4.80;1.33;;;13.90;99.90;;;;;;4362099;32;21665;-76
2023/06/01 06:14:58;;;;;;;3.92;0.55;;;13.90;99.90;;;;;;4357380;32;20091;-75
2023/06/01 06:17:24;;;;;;;2.60;0.57;;;13.90;99.90;;;;;;4357599;32;20075;-76
2023/06/01 06:19:50;;;;;;;0.43;0.43;;;14.00;99.90;;;;;;4352087;32;20063;-76
2023/06/01 06:22:16;;;;;;;0.25;0.25;;;14.00;99.90;;;;;;4354781;32;20066;-76
2023/06/01 06:24:42;;;;;;;0.82;0.60;;;14.10;99.90;;;;;;4358470;32;20190;-75
2023/06/01 06:27:09;;;;;;;1.12;0.55;;;14.10;99.90;;;;;;4354584;32;20103;-75
2023/06/01 06:29:35;;;;;;;0.40;0.40;;;14.20;99.90;;;;;;4357836;32;20091;-76
2023/06/01 06:32:00;;;;;;;0.45;0.45;;;14.30;99.90;;;;;;4355583;32;20502;-75
2023/06/01 06:34:33;;;;;;;1.12;1.00;;;14.20;99.90;;;;;;4353672;32;21372;-76
2023/06/01 06:36:58;;;;;;;0.57;0.57;;;14.40;99.90;;;;;;4353019;32;20062;-78
2023/06/01 06:39:24;;;;;;;0.70;0.70;;;14.20;99.90;;;;;;4353543;32;20464;-75
2023/06/01 06:41:50;;;;;;;0.43;0.43;;;14.10;99.90;;;;;;4353975;32;20063;-76
2023/06/01 06:44:15;;;;;;;0.55;0.55;;;14.20;99.90;;;;;;4353368;32;20562;-76
2023/06/01 06:46:40;;;;;;;0.30;0.30;;;14.20;99.90;;;;;;4352151;32;20082;-76
2023/06/01 06:49:06;;;;;;;1.35;0.65;;;14.20;99.90;;;;;;4351548;32;20460;-77
2023/06/01 06:51:32;;;;;;;0.30;0.30;;;14.50;99.90;;;;;;4349711;32;20094;-77
2023/06/01 06:53:58;;;;;;;2.50;0.77;;;14.40;99.90;;;;;;4347423;32;20082;-75
2023/06/01 06:56:23;;;;;;;2.92;0.70;;;14.30;99.90;;;;;;4352344;32;20075;-76
2023/06/01 06:58:49;;;;;;;7.95;1.00;;;14.30;99.90;;;;;;4348858;32;20095;-75
2023/06/01 07:01:15;;;;;;;0.70;0.70;;;14.40;99.90;;;;;;4349394;32;20102;-76
2023/06/01 07:03:40;;;;;;;6.80;0.60;;;14.50;99.90;;;;;;4347846;32;20094;-75
2023/06/01 07:06:06;;;;;;;1.10;0.82;;;14.70;99.90;;;;;;4345760;32;20104;-76
2023/06/01 07:08:34;;;;;;;0.40;0.40;;;14.60;99.90;;;;;;4340646;32;20583;-75
2023/06/01 07:11:00;;;;;;;0.90;0.80;;;14.60;99.90;;;;;;4347136;32;21175;-76
2023/06/01 07:13:25;;;;;;;0.40;0.40;;;14.60;99.90;;;;;;4352332;32;20436;-77
2023/06/01 07:15:52;;;;;;;0.30;0.30;;;14.50;99.90;;;;;;4349378;32;20149;-75
2023/06/01 07:18:18;;;;;;;0.40;0.40;;;14.50;99.90;;;;;;4351137;32;20715;-76
2023/06/01 07:20:43;;;;;;;0.40;0.40;;;14.50;99.90;;;;;;4350423;32;20083;-76
2023/06/01 07:23:12;;;;;;;0.30;0.30;;;14.50;99.90;;;;;;4349395;32;20523;-78
2023/06/01 07:25:38;;;;;;;0.68;0.68;;;14.40;99.90;;;;;;4350533;32;20111;-74
2023/06/01 07:28:07;;;;;;;0.93;0.93;;;14.60;99.90;;;;;;4355395;32;20066;-74
2023/06/01 07:30:32;;;;;;;0.50;0.50;;;14.80;99.90;;;;;;4356985;32;20078;-73
2023/06/01 07:32:58;;;;;;;0.28;0.28;;;14.70;99.90;;;;;;4355199;32;20140;-76
2023/06/01 07:35:23;;;;;;;5.47;0.50;;;14.80;99.90;;;;;;4353966;32;20118;-73
2023/06/01 07:37:49;;;;;;;0.28;0.28;;;15.00;99.90;;;;;;4350417;32;20086;-73
2023/06/01 07:40:15;;;;;;;0.57;0.57;;;15.10;99.90;;;;;;4351919;32;20358;-76
2023/06/01 07:42:40;;;;;;;0.30;0.30;;;15.20;99.90;;;;;;4352727;32;20164;-75
2023/06/01 07:45:08;;;;;;;0.52;0.52;;;15.20;99.90;;;;;;4352770;32;20319;-75
2023/06/01 07:47:33;;;;;;;1.75;0.68;;;15.50;99.90;;;;;;4351457;32;20125;-75
2023/06/01 07:49:59;;;;;;;0.60;0.60;;;15.70;99.90;;;;;;4348932;32;20083;-75
2023/06/01 07:52:24;;;;;;;14.55;0.45;;;16.00;99.90;;;;;;4345777;32;20475;-75
2023/06/01 07:54:51;;;;;;;0.93;0.62;;;16.30;99.90;;;;;;4342481;32;20102;-75
2023/06/01 07:57:17;;;;;;;0.40;0.40;;;16.30;99.90;;;;;;4349665;32;20465;-74
2023/06/01 07:59:42;;;;;;;13.35;0.85;;;16.30;99.90;;;;;;4349344;32;20074;-75
2023/06/01 08:02:10;;;;;;;0.57;0.57;;;16.40;99.90;;;;;;4347224;32;20433;-75
2023/06/01 08:04:37;;;;;;;3.72;1.20;;;15.90;99.90;;;;;;4341568;32;20559;-76
2023/06/01 08:07:03;;;;;;;1.77;1.65;;;16.00;99.90;;;;;;4348939;32;20099;-75
2023/06/01 08:09:30;;;;;;;1.98;1.10;;;16.00;99.90;;;;;;4348162;32;20139;-75
2023/06/01 08:11:55;;;;;;;0.40;0.40;;;16.10;99.90;;;;;;4351223;32;20816;-75
2023/06/01 08:14:21;;;;;;;0.77;0.70;;;16.30;99.90;;;;;;4351553;32;20146;-75
2023/06/01 08:16:47;;;;;;;0.50;0.50;;;16.60;99.90;;;;;;4348308;32;20109;-75
2023/06/01 08:19:13;;;;;;;11.00;0.73;;;16.70;99.90;;;;;;4349492;32;20521;-75
2023/06/01 08:21:41;;;;;;;1.70;0.60;;;16.70;99.90;;;;;;4347599;32;20098;-76
2023/06/01 08:24:08;;;;;;;0.40;0.40;;;16.80;99.90;;;;;;4347987;32;20095;-74
2023/06/01 08:26:34;;;;;;;1.02;0.80;;;17.00;99.90;;;;;;4345875;32;20152;-76
2023/06/01 08:29:00;;;;;;;0.20;0.20;;;17.00;99.90;;;;;;4345356;32;20539;-75
2023/06/01 08:31:25;;;;;;;0.50;0.50;;;17.20;99.90;;;;;;4349832;32;20488;-75
2023/06/01 08:33:52;;;;;;;0.50;0.50;;;17.10;99.90;;;;;;4358650;32;20333;-75
2023/06/01 08:36:19;;;;;;;0.52;0.40;;;17.10;99.90;;;;;;4352656;32;20114;-74
2023/06/01 08:38:45;;;;;;;0.62;0.52;;;17.30;99.90;;;;;;4347988;32;20086;-75
2023/06/01 08:41:38;;;;;;;2.47;1.20;;;17.30;99.90;;;;;;4348565;32;20095;-75
2023/06/01 08:44:06;;;;;;;0.43;0.40;;;17.20;99.90;;;;;;4347811;32;20150;-73
2023/06/01 08:46:32;;;;;;;0.30;0.30;;;17.00;99.90;;;;;;4352233;32;20094;-75
2023/06/01 08:48:59;;;;;;;0.52;0.52;;;16.90;99.90;;;;;;4346836;32;20234;-75
2023/06/01 08:51:25;;;;;;;0.30;0.30;;;16.80;99.90;;;;;;4343564;32;20154;-75
2023/06/01 08:53:52;;;;;;;3.25;0.98;;;16.90;99.90;;;;;;4349182;32;20142;-76
2023/06/01 08:56:21;;;;;;;0.22;0.22;;;16.80;99.90;;;;;;4346791;32;20078;-75
2023/06/01 08:58:47;;;;;;;6.87;0.47;;;16.90;99.90;;;;;;4348608;32;20772;-75
2023/06/01 09:01:19;;;;;;;0.37;0.37;;;17.10;99.90;;;;;;4348560;32;20079;-76
2023/06/01 09:03:45;;;;;;;0.55;0.55;;;17.40;99.90;;;;;;4344642;32;20091;-74
2023/06/01 09:06:11;;;;;;;0.30;0.30;;;17.60;99.90;;;;;;4344531;32;20141;-75
2023/06/01 09:08:37;;;;;;;1.05;0.95;;;17.70;99.90;;;;;;4346167;32;20610;-74
2023/06/01 09:11:03;;;;;;;2.95;1.27;;;17.80;99.90;;;;;;4348305;32;20579;-74
2023/06/01 09:13:44;;;;;;;4.95;0.57;;;17.80;99.90;;;;;;4350973;32;20152;-74
2023/06/01 09:16:10;;;;;;;;;;;18.00;99.90;;;;;;4351483;32;20098;-74
2023/06/01 09:18:36;;;;;;;0.32;0.32;;;18.10;99.90;;;;;;4351135;32;19960;-75
2023/06/01 09:21:12;;;;;;;0.40;0.40;;;18.20;99.90;;;;;;4349672;32;20107;-72
2023/06/01 09:23:38;;;;;;;0.70;0.50;;;18.20;99.90;;;;;;4345564;32;20079;-75
2023/06/01 09:26:06;;;;;;;2.50;1.05;;;18.00;99.90;;;;;;4351761;32;20173;-75
2023/06/01 09:28:54;;;;;;;0.45;0.37;;;18.00;99.90;;;;;;4350579;32;20405;-77
2023/06/01 09:31:38;;;;;;;0.90;0.85;;;17.80;99.90;;;;;;4352262;32;20158;-74
2023/06/01 09:34:04;;;;;;;0.60;0.60;;;18.20;99.90;;;;;;4350312;32;20175;-75
2023/06/01 09:36:30;;;;;;;0.50;0.50;;;18.50;99.90;;;;;;4353204;32;20094;-76
2023/06/01 09:39:06;;;;;;;0.57;0.50;;;18.60;99.90;;;;;;4346112;32;20086;-75
2023/06/01 09:41:58;;;;;;;0.30;0.30;;;18.90;99.90;;;;;;4342477;32;20099;-75
2023/06/01 09:44:27;;;;;;;2.58;1.42;;;19.20;99.90;;;;;;4342158;32;20114;-76
2023/06/01 09:46:55;;;;;;;0.30;0.30;;;19.20;99.90;;;;;;4350850;32;20100;-75
2023/06/01 09:49:30;;;;;;;1.98;0.98;;;19.50;99.90;;;;;;4350453;32;20082;-74
2023/06/01 09:52:16;;;;;;;0.52;0.45;;;19.50;99.60;;;;;;4349598;32;20146;-75
2023/06/01 09:54:47;;;;;;;0.40;0.40;;;19.20;99.90;;;;;;4355057;32;20103;-75
2023/06/01 09:57:19;;;;;;;0.30;0.30;;;19.40;99.90;;;;;;4353417;32;20137;-75
2023/06/01 09:59:46;;;;;;;0.32;0.32;;;19.30;99.90;;;;;;4357257;32;20468;-77
2023/06/01 10:02:16;;;;;;;0.45;0.45;;;19.20;99.90;;;;;;4350224;32;20198;-75
2023/06/01 10:04:45;;;;;;;;;;;19.50;99.90;;;;;;4354217;32;20150;-76
2023/06/01 10:07:13;;;;;;;1.08;0.80;;;19.90;99.90;;;;;;4348631;32;22219;-74
2023/06/01 10:09:41;;;;;;;0.77;0.77;;;19.90;99.00;;;;;;4345405;32;20151;-72
2023/06/01 10:12:08;;;;;;;0.50;0.50;;;19.80;99.70;;;;;;4350881;32;20554;-76
2023/06/01 10:14:37;;;;;;;0.30;0.30;;;20.10;99.60;;;;;;4351056;32;20063;-76
2023/06/01 10:17:03;;;;;;;0.62;0.62;;;20.40;99.20;;;;;;4347594;32;20078;-75
2023/06/01 10:19:29;;;;;;;0.30;0.30;;;20.70;99.30;;;;;;4344017;32;20099;-73
2023/06/01 10:21:57;;;;;;;0.40;0.32;;;20.60;98.00;;;;;;4351289;32;20360;-74
2023/06/01 10:24:23;;;;;;;1.12;0.70;;;21.00;97.80;;;;;;4351502;32;20185;-75
2023/06/01 10:27:10;;;;;;;2.80;0.82;;;21.20;96.80;;;;;;4350171;32;20095;-74
2023/06/01 10:29:36;;;;;;;0.22;0.22;;;21.00;97.10;;;;;;4356669;32;20222;-74
2023/06/01 10:32:01;;;;;;;2.30;0.70;;;21.00;97.10;;;;;;4353158;32;20479;-74
2023/06/01 10:34:44;;;;;;;0.55;0.43;;;21.20;96.40;;;;;;4353539;32;20644;-74
2023/06/01 10:37:11;;;;;;;2.42;0.82;;;21.20;95.80;;;;;;4353402;32;20094;-74
2023/06/01 10:39:37;;;;;;;2.00;0.50;;;21.10;95.90;;;;;;4354256;32;20086;-74
2023/06/01 10:42:22;;;;;;;0.52;0.50;;;21.20;96.20;;;;;;4353714;32;20083;-74
2023/06/01 10:44:48;;;;;;;0.60;0.60;;;21.30;96.30;;;;;;4357358;32;20503;-74
2023/06/01 10:47:23;;;;;;;0.30;0.30;;;21.70;95.70;;;;;;4350987;32;20461;-75
2023/06/01 10:49:51;;;;;;;0.50;0.50;;;21.80;96.10;;;;;;4350596;32;20472;-74
2023/06/01 10:52:36;;;;;;;3.50;1.50;;;21.90;95.50;;;;;;4346641;32;20459;-75
2023/06/01 10:55:07;;;;;;;0.30;0.30;;;22.20;95.20;;;;;;4353001;32;20075;-76
2023/06/01 10:57:34;;;;;;;0.75;0.60;;;22.40;94.70;;;;;;4352621;32;20119;-76
2023/06/01 11:00:22;;;;;;;0.80;0.50;;;22.50;94.30;;;;;;4353282;32;20063;-75
2023/06/01 11:02:52;;;;;;;1.23;0.93;;;22.90;94.50;;;;;;4353748;32;20139;-76
2023/06/01 11:05:39;;;;;;;3.05;0.50;;;22.90;94.10;;;;;;4350769;32;20102;-75
2023/06/01 11:08:08;;;;;;;0.57;0.30;;;23.30;93.40;;;;;;4355656;32;20079;-75
2023/06/01 11:10:55;;;;;;;0.30;0.30;;;23.50;92.90;;;;;;4353216;32;20079;-75
2023/06/01 11:13:25;;;;;;;0.30;0.30;;;23.60;92.60;;;;;;4355996;32;20091;-75
2023/06/01 11:16:10;;;;;;;0.47;0.47;;;23.80;91.90;;;;;;4352108;32;20547;-75
2023/06/01 11:18:57;;;;;;;5.30;1.23;;;23.70;91.90;;;;;;4356971;32;20235;-75
2023/06/01 11:21:26;;;;;;;0.35;0.32;;;24.20;92.00;;;;;;4349382;32;20090;-73
2023/06/01 11:23:53;;;;;;;4.20;1.62;;;24.30;91.40;;;;;;4355018;32;20094;-74
2023/06/01 11:26:21;;;;;;;0.20;0.20;;;24.10;92.00;;;;;;4353280;32;20078;-75
2023/06/01 11:28:48;;;;;;;3.95;1.25;;;24.60;91.20;;;;;;4347315;32;20119;-75
2023/06/01 11:31:16;;;;;;;1.08;0.50;;;24.30;90.10;;;;;;4349341;32;20143;-75
2023/06/01 11:33:47;;;;;;;12.45;0.40;;;24.10;90.80;;;;;;4357579;32;20090;-75
2023/06/01 11:36:14;;;;;;;1.55;0.75;;;24.20;90.50;;;;;;4351334;32;20067;-74
2023/06/01 11:38:42;;;;;;;0.55;0.47;;;24.30;90.50;;;;;;4355930;32;20079;-74
2023/06/01 11:41:08;;;;;;;0.60;0.60;;;24.50;90.40;;;;;;4353849;32;20121;-74
2023/06/01 11:43:35;;;;;;;10.38;0.40;;;24.70;90.10;;;;;;4354649;32;20070;-74
2023/06/01 11:46:04;;;;;;;0.40;0.40;;;25.00;87.30;;;;;;4348489;32;138925;-75
2023/06/01 11:48:29;;;;;;;3.28;0.73;;;25.20;87.00;;;;;;4358303;32;20086;-75
2023/06/01 11:50:56;;;;;;;0.20;0.20;;;25.50;85.90;;;;;;4352525;32;20569;-76
2023/06/01 11:53:23;;;;;;;0.57;0.30;;;25.50;84.70;;;;;;4351837;32;20234;-76
2023/06/01 11:55:51;;;;;;;0.25;0.25;;;25.80;83.10;;;;;;4354503;32;20199;-76
2023/06/01 11:58:22;;;;;;;0.15;0.15;;;26.10;81.70;;;;;;4353012;32;20602;-75
2023/06/01 12:00:48;;;;;;;4.53;1.12;;;26.30;81.40;;;;;;4351195;32;20106;-75
2023/06/01 12:03:14;;;;;;;1.25;0.50;;;26.60;81.00;;;;;;4351380;32;20510;-77
2023/06/01 12:05:48;;;;;;;0.25;0.25;;;26.70;80.30;;;;;;4355024;32;20432;-75
2023/06/01 12:08:18;;;;;;;0.30;0.30;;;26.50;80.50;;;;;;4352309;32;20087;-75
2023/06/01 12:10:47;;;;;;;0.17;0.17;;;27.00;80.50;;;;;;4350719;32;20138;-75
2023/06/01 12:13:13;;;;;;;0.10;0.10;;;27.20;78.30;;;;;;4354216;32;20461;-74
2023/06/01 12:15:39;;;;;;;0.17;0.17;;;26.40;79.30;;;;;;4351011;32;20094;-75
2023/06/01 12:18:05;;;;;;;4.00;1.10;;;25.70;80.40;;;;;;4352553;32;20551;-75
2023/06/01 12:20:33;;;;;;;0.10;0.10;;;25.90;80.30;;;;;;4352406;32;20094;-75
2023/06/01 12:23:03;;;;;;;0.15;0.15;;;26.20;79.50;;;;;;4351231;32;20761;-75
2023/06/01 12:25:30;;;;;;;0.22;0.15;;;26.40;78.50;;;;;;4355649;32;20127;-76
2023/06/01 12:28:05;;;;;;;0.03;0.03;;;26.60;80.00;;;;;;4349799;32;20543;-76
2023/06/01 12:30:31;;;;;;;0.17;0.17;;;27.00;79.80;;;;;;4346121;32;20755;-75
2023/06/01 12:32:56;;;;;;;2.05;0.75;;;27.30;78.10;;;;;;4352383;32;20485;-74
2023/06/01 12:35:23;;;;;;;10.70;0.30;;;27.10;80.40;;;;;;4351009;32;20136;-75
2023/06/01 12:38:10;;;;;;;0.75;0.75;;;27.40;78.60;;;;;;4351955;32;20107;-74
2023/06/01 12:40:37;;;;;;;0.30;0.30;;;27.90;76.20;;;;;;4338411;32;20091;-77
2023/06/01 12:43:05;;;;;;;0.32;0.25;;;28.00;74.80;;;;;;4351679;32;20113;-74
2023/06/01 12:45:38;;;;;;;0.25;0.25;;;28.50;73.80;;;;;;4354612;32;20099;-75
2023/06/01 12:48:05;;;;;;;0.35;0.35;;;28.90;74.30;;;;;;4356536;32;20066;-74
2023/06/01 12:50:31;;;;;;;0.50;0.40;;;29.60;72.80;;;;;;4355888;32;20083;-74
2023/06/01 12:52:56;;;;;;;1.80;0.43;;;29.60;72.10;;;;;;4351471;32;20520;-75